Toyofukumaru — JD2177 — position and weather

sailwx.info

Track history (hours):
 
Tides and Currents Weather Stations Pressure Air Temp Water Temp Dewpoint Dewpoint Depression Visibility Wind Speed Wind Dir Waves Ship Positions

Toyofukumaru

Last reported at 2016-Aug-25 13:08 UTC. Time now 2016-Aug-26 17:28 UTC.
Position N 34°28' E 138°31'.

Length 165 m; draft 6.2 m.

Type: Cargo ship. MMSI: 431200688.

Date/timePositionNaut miles runAvg speedWind from/ knotsBaromVisibWave heightAir tempDewpointWater temp
2016-Aug-25 13:08N 34°28' E 138°31'5214.4
2016-Aug-25 09:33N 34°55' E 139°24'1615.8
2016-Aug-25 08:33N 35°04' E 139°40'1413.5
2016-Aug-25 07:33N 35°17' E 139°45'8 7.9
2016-Aug-25 06:31N 35°23' E 139°39'0 0.0
2016-Aug-25 04:31N 35°23' E 139°39'0 0.0
2016-Aug-25 03:31N 35°23' E 139°39'1 0.5
2016-Aug-25 02:34N 35°24' E 139°39'1212.3
2016-Aug-25 01:33N 35°13' E 139°47'1918.5
2016-Aug-25 00:33N 34°54' E 139°46'1817.9
2016-Aug-24 23:33N 34°58' E 140°07'2018.7
2016-Aug-24 22:31N 35°09' E 140°27'1919.4
2016-Aug-24 21:32N 35°23' E 140°42'2020.2
2016-Aug-24 20:33N 35°40' E 140°55'1919.5
2016-Aug-24 19:33N 35°59' E 140°58'2219.6
2016-Aug-24 18:27N 36°21' E 140°60'1719.3
2016-Aug-24 17:33N 36°38' E 141°00'6 0.2
2016-Aug-23 16:29N 36°45' E 140°60'1718.7
2016-Aug-23 15:33N 36°27' E 140°58'1918.8
2016-Aug-23 14:33N 36°09' E 140°57'1919.2
2016-Aug-23 13:33N 35°49' E 140°55'1918.7
2016-Aug-23 12:33N 35°32' E 140°47'2119.4
2016-Aug-23 11:30N 35°14' E 140°34'2020.1
2016-Aug-23 10:29N 35°03' E 140°14'2120.8
2016-Aug-23 09:28N 34°52' E 139°52'1617.4
2016-Aug-23 08:33N 35°07' E 139°45'1414.1
2016-Aug-23 07:34N 35°21' E 139°42'10 9.6
2016-Aug-23 06:33N 35°30' E 139°46'0 0.0
2016-Aug-23 05:33N 35°30' E 139°46'0 0.0
2016-Aug-23 04:33N 35°30' E 139°46'0 0.0
2016-Aug-23 03:33N 35°30' E 139°46'0 0.0
2016-Aug-23 02:33N 35°30' E 139°46'9 9.0
2016-Aug-23 01:33N 35°23' E 139°39'0 0.0
2016-Aug-23 00:33N 35°23' E 139°39'0 0.0
2016-Aug-22 23:33N 35°23' E 139°39'0 0.0
2016-Aug-22 22:33N 35°23' E 139°39'5 5.5
2016-Aug-22 21:34N 35°19' E 139°43'1110.5
2016-Aug-22 20:34N 35°09' E 139°47'1313.0
2016-Aug-22 19:33N 34°58' E 139°38'13 0.4
2016-Aug-21 09:26N 34°53' E 139°23'1819.9
2016-Aug-21 08:33N 35°05' E 139°40'1413.7
2016-Aug-21 07:33N 35°18' E 139°44'7 7.0
2016-Aug-21 06:33N 35°23' E 139°39'0 0.0
2016-Aug-21 05:32N 35°23' E 139°39'0 0.0
2016-Aug-21 04:32N 35°23' E 139°39'0 0.0
2016-Aug-21 03:32N 35°23' E 139°39'0 0.0
2016-Aug-21 02:32N 35°23' E 139°39'0 0.0
2016-Aug-21 01:32N 35°23' E 139°39'0 0.0
2016-Aug-21 00:32N 35°23' E 139°39'0 0.0
2016-Aug-20 23:32N 35°23' E 139°39'0 0.0
2016-Aug-20 22:32N 35°23' E 139°39'0 0.0
2016-Aug-20 21:32N 35°23' E 139°39'0 0.0
2016-Aug-20 20:32N 35°23' E 139°39'0 0.0
2016-Aug-20 19:32N 35°23' E 139°39'0 0.0
2016-Aug-20 18:29N 35°23' E 139°39'0 0.0
2016-Aug-20 17:32N 35°23' E 139°39'0 0.0
2016-Aug-20 16:32N 35°23' E 139°39'0 0.0
2016-Aug-20 15:32N 35°23' E 139°39'0 0.0
2016-Aug-20 14:32N 35°23' E 139°39'0 0.0
2016-Aug-20 13:32N 35°23' E 139°39'0 0.0
2016-Aug-20 12:32N 35°23' E 139°39'0 0.0
2016-Aug-20 11:32N 35°23' E 139°39'0 0.0
2016-Aug-20 10:32N 35°23' E 139°39'0 0.0
2016-Aug-20 09:32N 35°23' E 139°39'0 0.0
2016-Aug-20 08:32N 35°23' E 139°39'0 0.0
2016-Aug-20 07:32N 35°23' E 139°39'0 0.0
2016-Aug-20 06:32N 35°23' E 139°39'0 0.0
2016-Aug-20 05:32N 35°23' E 139°39'0 0.0
2016-Aug-20 04:32N 35°23' E 139°39'0 0.0
2016-Aug-20 03:32N 35°23' E 139°39'0 0.0
2016-Aug-20 02:32N 35°23' E 139°39'0 0.0
2016-Aug-20 01:32N 35°23' E 139°39'0 0.0
2016-Aug-20 00:32N 35°23' E 139°39'0 0.0
2016-Aug-19 23:32N 35°23' E 139°39'0 0.0
2016-Aug-19 22:32N 35°23' E 139°39'0 0.0
2016-Aug-19 21:32N 35°23' E 139°39'0 0.0
2016-Aug-19 20:32N 35°23' E 139°39'0 0.0
2016-Aug-19 19:32N 35°23' E 139°39'0 0.0
2016-Aug-19 18:32N 35°23' E 139°39'0 0.0
2016-Aug-19 17:32N 35°23' E 139°39'0 0.0
2016-Aug-19 16:32N 35°23' E 139°39'0 0.0
2016-Aug-19 15:32N 35°23' E 139°39'0 0.0
2016-Aug-19 14:32N 35°23' E 139°39'0 0.0
2016-Aug-19 13:32N 35°23' E 139°39'0 0.0
2016-Aug-19 12:32N 35°23' E 139°39'0 0.0
2016-Aug-19 11:32N 35°23' E 139°39'0 0.0
2016-Aug-19 10:32N 35°23' E 139°39'0 0.0
2016-Aug-19 09:32N 35°23' E 139°39'0 0.0
2016-Aug-19 08:32N 35°23' E 139°39'0 0.0
2016-Aug-19 07:32N 35°23' E 139°39'0 0.0
2016-Aug-19 06:32N 35°23' E 139°39'0 0.0
2016-Aug-19 05:32N 35°23' E 139°39'0 0.0
2016-Aug-19 04:32N 35°23' E 139°39'0 0.0
2016-Aug-19 03:32N 35°23' E 139°39'0 0.0
2016-Aug-19 02:32N 35°23' E 139°39'0 0.0
2016-Aug-19 01:32N 35°23' E 139°39'0 0.0
2016-Aug-19 00:32N 35°23' E 139°39'0 0.0
2016-Aug-18 23:32N 35°23' E 139°39'0 0.0
2016-Aug-18 22:32N 35°23' E 139°39'0 0.0
2016-Aug-18 21:32N 35°23' E 139°39'0 0.0
2016-Aug-18 20:32N 35°23' E 139°39'0 0.0
2016-Aug-18 19:32N 35°23' E 139°39'0 0.0
2016-Aug-18 18:32N 35°23' E 139°39'0 0.0
2016-Aug-18 17:32N 35°23' E 139°39'0 0.0
2016-Aug-18 16:32N 35°23' E 139°39'0 0.0
2016-Aug-18 15:32N 35°23' E 139°39'0 0.0
2016-Aug-18 14:32N 35°23' E 139°39'0 0.0
2016-Aug-18 13:32N 35°23' E 139°39'0 0.0
2016-Aug-18 12:32N 35°23' E 139°39'0 0.0
2016-Aug-18 11:32N 35°23' E 139°39'0 0.0
2016-Aug-18 10:32N 35°23' E 139°39'0 0.0
2016-Aug-18 09:32N 35°23' E 139°39'0 0.0
2016-Aug-18 08:29N 35°23' E 139°39'0 0.0
2016-Aug-18 07:29N 35°23' E 139°39'0 0.0
2016-Aug-18 06:32N 35°23' E 139°39'0 0.0
2016-Aug-18 05:32N 35°23' E 139°39'0 0.0
2016-Aug-18 04:32N 35°23' E 139°39'0 0.0
2016-Aug-18 03:32N 35°23' E 139°39'7 7.2
2016-Aug-18 02:34N 35°27' E 139°47'1211.9
2016-Aug-18 01:34N 35°32' E 139°59'0 0.1
2016-Aug-18 00:32N 35°32' E 139°59'0 0.0
2016-Aug-17 23:32N 35°32' E 139°59'0 0.0
2016-Aug-17 22:29N 35°32' E 139°59'0 0.0
2016-Aug-17 21:32N 35°32' E 139°59'0 0.0
2016-Aug-17 20:29N 35°32' E 139°59'0 0.0
2016-Aug-17 19:32N 35°32' E 139°59'0 0.0
2016-Aug-17 18:32N 35°32' E 139°59'0 0.0
2016-Aug-17 17:32N 35°32' E 139°59'0 0.0
2016-Aug-17 16:32N 35°32' E 139°59'0 0.0
2016-Aug-17 15:29N 35°32' E 139°59'0 0.1
2016-Aug-17 14:32N 35°32' E 139°59'0 0.0
2016-Aug-17 13:29N 35°32' E 139°59'0 0.0
2016-Aug-17 12:33N 35°32' E 139°59'0 0.0
2016-Aug-17 11:33N 35°32' E 139°59'0 0.0
2016-Aug-17 10:33N 35°32' E 139°59'0 0.0
2016-Aug-17 09:33N 35°32' E 139°59'0 0.0
2016-Aug-17 08:32N 35°32' E 139°59'0 0.0
2016-Aug-17 07:32N 35°32' E 139°59'0 0.0
2016-Aug-17 06:30N 35°32' E 139°59'0 0.0
2016-Aug-17 05:33N 35°32' E 139°59'0 0.0
2016-Aug-17 04:27N 35°32' E 139°59'0 0.1
2016-Aug-17 03:32N 35°32' E 139°60'0 0.0
2016-Aug-17 02:33N 35°32' E 139°60'0 0.1
2016-Aug-17 01:32N 35°32' E 139°59'0 0.0
2016-Aug-17 00:32N 35°32' E 139°59'0 0.1
2016-Aug-16 23:34N 35°32' E 139°60'0 0.0
2016-Aug-16 22:25N 35°32' E 139°59'0 0.0
2016-Aug-16 21:28N 35°32' E 139°59'0 0.0
2016-Aug-16 20:30N 35°32' E 139°59'0 0.1
2016-Aug-16 19:26N 35°32' E 139°60'0 0.1
2016-Aug-16 18:22N 35°32' E 139°59'0 0.0
2016-Aug-16 17:25N 35°32' E 139°59'0 0.0
2016-Aug-16 16:29N 35°32' E 139°59'0 0.1
2016-Aug-16 15:33N 35°32' E 139°59'0 0.0
2016-Aug-16 14:33N 35°32' E 139°59'0 0.0
2016-Aug-16 13:30N 35°32' E 139°59'0 0.1
2016-Aug-16 12:30N 35°32' E 139°59'0 0.1
2016-Aug-16 11:32N 35°32' E 139°59'0 0.0
2016-Aug-16 10:33N 35°32' E 139°59'0 0.0
2016-Aug-16 09:33N 35°32' E 139°59'0 0.1
2016-Aug-16 08:34N 35°32' E 139°59'0 0.0
2016-Aug-16 07:33N 35°32' E 139°59'0 0.0
2016-Aug-16 04:32N 35°32' E 139°59'0 0.0
2016-Aug-16 03:34N 35°32' E 139°59'0 0.0
2016-Aug-16 02:34N 35°32' E 139°59'0 0.0
2016-Aug-16 01:33N 35°32' E 139°59'0 0.0
2016-Aug-16 00:33N 35°32' E 139°59'0 0.0
2016-Aug-15 23:30N 35°32' E 139°59'0 0.1
2016-Aug-15 22:33N 35°32' E 139°59'1414.3
2016-Aug-15 21:33N 35°23' E 139°46'1110.8
2016-Aug-15 20:33N 35°12' E 139°47'1817.9
2016-Aug-15 19:33N 34°54' E 139°46'1717.7
2016-Aug-15 18:33N 34°58' E 140°07'1817.5
2016-Aug-15 17:31N 35°09' E 140°25'1717.8
2016-Aug-15 16:33N 35°22' E 140°39'1918.6
2016-Aug-15 15:33N 35°38' E 140°51'1918.1
2016-Aug-15 14:31N 35°56' E 140°58'2019.0
2016-Aug-15 13:28N 36°16' E 140°59'  
Track history (hours):
 
Tides and Currents Weather Stations Pressure Air Temp Water Temp Dewpoint Dewpoint Depression Visibility Wind Speed Wind Dir Waves Ship Positions

Toyofukumaru

Last reported at 2016-Aug-25 13:08 UTC. Time now 2016-Aug-26 17:28 UTC.
Position N 34°28' E 138°31'.

Length 165 m; draft 6.2 m.

Type: Cargo ship. MMSI: 431200688.

Date/timePositionNaut miles runAvg speedWind from/ knotsBaromVisibWave heightAir tempDewpointWater temp
2016-Aug-25 13:08N 34°28' E 138°31'5214.4
2016-Aug-25 09:33N 34°55' E 139°24'1615.8
2016-Aug-25 08:33N 35°04' E 139°40'1413.5
2016-Aug-25 07:33N 35°17' E 139°45'8 7.9
2016-Aug-25 06:31N 35°23' E 139°39'0 0.0
2016-Aug-25 04:31N 35°23' E 139°39'0 0.0
2016-Aug-25 03:31N 35°23' E 139°39'1 0.5
2016-Aug-25 02:34N 35°24' E 139°39'1212.3
2016-Aug-25 01:33N 35°13' E 139°47'1918.5
2016-Aug-25 00:33N 34°54' E 139°46'1817.9
2016-Aug-24 23:33N 34°58' E 140°07'2018.7
2016-Aug-24 22:31N 35°09' E 140°27'1919.4
2016-Aug-24 21:32N 35°23' E 140°42'2020.2
2016-Aug-24 20:33N 35°40' E 140°55'1919.5
2016-Aug-24 19:33N 35°59' E 140°58'2219.6
2016-Aug-24 18:27N 36°21' E 140°60'1719.3
2016-Aug-24 17:33N 36°38' E 141°00'6 0.2
2016-Aug-23 16:29N 36°45' E 140°60'1718.7
2016-Aug-23 15:33N 36°27' E 140°58'1918.8
2016-Aug-23 14:33N 36°09' E 140°57'1919.2
2016-Aug-23 13:33N 35°49' E 140°55'1918.7
2016-Aug-23 12:33N 35°32' E 140°47'2119.4
2016-Aug-23 11:30N 35°14' E 140°34'2020.1
2016-Aug-23 10:29N 35°03' E 140°14'2120.8
2016-Aug-23 09:28N 34°52' E 139°52'1617.4
2016-Aug-23 08:33N 35°07' E 139°45'1414.1
2016-Aug-23 07:34N 35°21' E 139°42'10 9.6
2016-Aug-23 06:33N 35°30' E 139°46'0 0.0
2016-Aug-23 05:33N 35°30' E 139°46'0 0.0
2016-Aug-23 04:33N 35°30' E 139°46'0 0.0
2016-Aug-23 03:33N 35°30' E 139°46'0 0.0
2016-Aug-23 02:33N 35°30' E 139°46'9 9.0
2016-Aug-23 01:33N 35°23' E 139°39'0 0.0
2016-Aug-23 00:33N 35°23' E 139°39'0 0.0
2016-Aug-22 23:33N 35°23' E 139°39'0 0.0
2016-Aug-22 22:33N 35°23' E 139°39'5 5.5
2016-Aug-22 21:34N 35°19' E 139°43'1110.5
2016-Aug-22 20:34N 35°09' E 139°47'1313.0
2016-Aug-22 19:33N 34°58' E 139°38'13 0.4
2016-Aug-21 09:26N 34°53' E 139°23'1819.9
2016-Aug-21 08:33N 35°05' E 139°40'1413.7
2016-Aug-21 07:33N 35°18' E 139°44'7 7.0
2016-Aug-21 06:33N 35°23' E 139°39'0 0.0
2016-Aug-21 05:32N 35°23' E 139°39'0 0.0
2016-Aug-21 04:32N 35°23' E 139°39'0 0.0
2016-Aug-21 03:32N 35°23' E 139°39'0 0.0
2016-Aug-21 02:32N 35°23' E 139°39'0 0.0
2016-Aug-21 01:32N 35°23' E 139°39'0 0.0
2016-Aug-21 00:32N 35°23' E 139°39'0 0.0
2016-Aug-20 23:32N 35°23' E 139°39'0 0.0
2016-Aug-20 22:32N 35°23' E 139°39'0 0.0
2016-Aug-20 21:32N 35°23' E 139°39'0 0.0
2016-Aug-20 20:32N 35°23' E 139°39'0 0.0
2016-Aug-20 19:32N 35°23' E 139°39'0 0.0
2016-Aug-20 18:29N 35°23' E 139°39'0 0.0
2016-Aug-20 17:32N 35°23' E 139°39'0 0.0
2016-Aug-20 16:32N 35°23' E 139°39'0 0.0
2016-Aug-20 15:32N 35°23' E 139°39'0 0.0
2016-Aug-20 14:32N 35°23' E 139°39'0 0.0
2016-Aug-20 13:32N 35°23' E 139°39'0 0.0
2016-Aug-20 12:32N 35°23' E 139°39'0 0.0
2016-Aug-20 11:32N 35°23' E 139°39'0 0.0
2016-Aug-20 10:32N 35°23' E 139°39'0 0.0
2016-Aug-20 09:32N 35°23' E 139°39'0 0.0
2016-Aug-20 08:32N 35°23' E 139°39'0 0.0
2016-Aug-20 07:32N 35°23' E 139°39'0 0.0
2016-Aug-20 06:32N 35°23' E 139°39'0 0.0
2016-Aug-20 05:32N 35°23' E 139°39'0 0.0
2016-Aug-20 04:32N 35°23' E 139°39'0 0.0
2016-Aug-20 03:32N 35°23' E 139°39'0 0.0
2016-Aug-20 02:32N 35°23' E 139°39'0 0.0
2016-Aug-20 01:32N 35°23' E 139°39'0 0.0
2016-Aug-20 00:32N 35°23' E 139°39'0 0.0
2016-Aug-19 23:32N 35°23' E 139°39'0 0.0
2016-Aug-19 22:32N 35°23' E 139°39'0 0.0
2016-Aug-19 21:32N 35°23' E 139°39'0 0.0
2016-Aug-19 20:32N 35°23' E 139°39'0 0.0
2016-Aug-19 19:32N 35°23' E 139°39'0 0.0
2016-Aug-19 18:32N 35°23' E 139°39'0 0.0
2016-Aug-19 17:32N 35°23' E 139°39'0 0.0
2016-Aug-19 16:32N 35°23' E 139°39'0 0.0
2016-Aug-19 15:32N 35°23' E 139°39'0 0.0
2016-Aug-19 14:32N 35°23' E 139°39'0 0.0
2016-Aug-19 13:32N 35°23' E 139°39'0 0.0
2016-Aug-19 12:32N 35°23' E 139°39'0 0.0
2016-Aug-19 11:32N 35°23' E 139°39'0 0.0
2016-Aug-19 10:32N 35°23' E 139°39'0 0.0
2016-Aug-19 09:32N 35°23' E 139°39'0 0.0
2016-Aug-19 08:32N 35°23' E 139°39'0 0.0
2016-Aug-19 07:32N 35°23' E 139°39'0 0.0
2016-Aug-19 06:32N 35°23' E 139°39'0 0.0
2016-Aug-19 05:32N 35°23' E 139°39'0 0.0
2016-Aug-19 04:32N 35°23' E 139°39'0 0.0
2016-Aug-19 03:32N 35°23' E 139°39'0 0.0
2016-Aug-19 02:32N 35°23' E 139°39'0 0.0
2016-Aug-19 01:32N 35°23' E 139°39'0 0.0
2016-Aug-19 00:32N 35°23' E 139°39'0 0.0
2016-Aug-18 23:32N 35°23' E 139°39'0 0.0
2016-Aug-18 22:32N 35°23' E 139°39'0 0.0
2016-Aug-18 21:32N 35°23' E 139°39'0 0.0
2016-Aug-18 20:32N 35°23' E 139°39'0 0.0
2016-Aug-18 19:32N 35°23' E 139°39'0 0.0
2016-Aug-18 18:32N 35°23' E 139°39'0 0.0
2016-Aug-18 17:32N 35°23' E 139°39'0 0.0
2016-Aug-18 16:32N 35°23' E 139°39'0 0.0
2016-Aug-18 15:32N 35°23' E 139°39'0 0.0
2016-Aug-18 14:32N 35°23' E 139°39'0 0.0
2016-Aug-18 13:32N 35°23' E 139°39'0 0.0
2016-Aug-18 12:32N 35°23' E 139°39'0 0.0
2016-Aug-18 11:32N 35°23' E 139°39'0 0.0
2016-Aug-18 10:32N 35°23' E 139°39'0 0.0
2016-Aug-18 09:32N 35°23' E 139°39'0 0.0
2016-Aug-18 08:29N 35°23' E 139°39'0 0.0
2016-Aug-18 07:29N 35°23' E 139°39'0 0.0
2016-Aug-18 06:32N 35°23' E 139°39'0 0.0
2016-Aug-18 05:32N 35°23' E 139°39'0 0.0
2016-Aug-18 04:32N 35°23' E 139°39'0 0.0
2016-Aug-18 03:32N 35°23' E 139°39'7 7.2
2016-Aug-18 02:34N 35°27' E 139°47'1211.9
2016-Aug-18 01:34N 35°32' E 139°59'0 0.1
2016-Aug-18 00:32N 35°32' E 139°59'0 0.0
2016-Aug-17 23:32N 35°32' E 139°59'0 0.0
2016-Aug-17 22:29N 35°32' E 139°59'0 0.0
2016-Aug-17 21:32N 35°32' E 139°59'0 0.0
2016-Aug-17 20:29N 35°32' E 139°59'0 0.0
2016-Aug-17 19:32N 35°32' E 139°59'0 0.0
2016-Aug-17 18:32N 35°32' E 139°59'0 0.0
2016-Aug-17 17:32N 35°32' E 139°59'0 0.0
2016-Aug-17 16:32N 35°32' E 139°59'0 0.0
2016-Aug-17 15:29N 35°32' E 139°59'0 0.1
2016-Aug-17 14:32N 35°32' E 139°59'0 0.0
2016-Aug-17 13:29N 35°32' E 139°59'0 0.0
2016-Aug-17 12:33N 35°32' E 139°59'0 0.0
2016-Aug-17 11:33N 35°32' E 139°59'0 0.0
2016-Aug-17 10:33N 35°32' E 139°59'0 0.0
2016-Aug-17 09:33N 35°32' E 139°59'0 0.0
2016-Aug-17 08:32N 35°32' E 139°59'0 0.0
2016-Aug-17 07:32N 35°32' E 139°59'0 0.0
2016-Aug-17 06:30N 35°32' E 139°59'0 0.0
2016-Aug-17 05:33N 35°32' E 139°59'0 0.0
2016-Aug-17 04:27N 35°32' E 139°59'0 0.1
2016-Aug-17 03:32N 35°32' E 139°60'0 0.0
2016-Aug-17 02:33N 35°32' E 139°60'0 0.1
2016-Aug-17 01:32N 35°32' E 139°59'0 0.0
2016-Aug-17 00:32N 35°32' E 139°59'0 0.1
2016-Aug-16 23:34N 35°32' E 139°60'0 0.0
2016-Aug-16 22:25N 35°32' E 139°59'0 0.0
2016-Aug-16 21:28N 35°32' E 139°59'0 0.0
2016-Aug-16 20:30N 35°32' E 139°59'0 0.1
2016-Aug-16 19:26N 35°32' E 139°60'0 0.1
2016-Aug-16 18:22N 35°32' E 139°59'0 0.0
2016-Aug-16 17:25N 35°32' E 139°59'0 0.0
2016-Aug-16 16:29N 35°32' E 139°59'0 0.1
2016-Aug-16 15:33N 35°32' E 139°59'0 0.0
2016-Aug-16 14:33N 35°32' E 139°59'0 0.0
2016-Aug-16 13:30N 35°32' E 139°59'0 0.1
2016-Aug-16 12:30N 35°32' E 139°59'0 0.1
2016-Aug-16 11:32N 35°32' E 139°59'0 0.0
2016-Aug-16 10:33N 35°32' E 139°59'0 0.0
2016-Aug-16 09:33N 35°32' E 139°59'0 0.1
2016-Aug-16 08:34N 35°32' E 139°59'0 0.0
2016-Aug-16 07:33N 35°32' E 139°59'0 0.0
2016-Aug-16 04:32N 35°32' E 139°59'0 0.0
2016-Aug-16 03:34N 35°32' E 139°59'0 0.0
2016-Aug-16 02:34N 35°32' E 139°59'0 0.0
2016-Aug-16 01:33N 35°32' E 139°59'0 0.0
2016-Aug-16 00:33N 35°32' E 139°59'0 0.0
2016-Aug-15 23:30N 35°32' E 139°59'0 0.1
2016-Aug-15 22:33N 35°32' E 139°59'1414.3
2016-Aug-15 21:33N 35°23' E 139°46'1110.8
2016-Aug-15 20:33N 35°12' E 139°47'1817.9
2016-Aug-15 19:33N 34°54' E 139°46'1717.7
2016-Aug-15 18:33N 34°58' E 140°07'1817.5
2016-Aug-15 17:31N 35°09' E 140°25'1717.8
2016-Aug-15 16:33N 35°22' E 140°39'1918.6
2016-Aug-15 15:33N 35°38' E 140°51'1918.1
2016-Aug-15 14:31N 35°56' E 140°58'2019.0
2016-Aug-15 13:28N 36°16' E 140°59'  

Dump ship's entire track history